Monday, April 21, 2014
04:32 UTC
  |  Log In   |  Register Free
Airport Search:

Southwest Georgia Regional Airport
(KABY)

FAA data valid effective April 3, 2014 until May 29, 2014 (unless otherwise noted).

 
 
 
 
 
 
 
 
 
 
 
 
 
 

Current Aviation Weather for Southwest Georgia Regional Airport (KABY)

The most recent METAR observation for KABY was updated at: 0353 UTC
METAR Summary (Translated METAR)
KABY
210353Z 00000KT 8SM CLR 12/11 A3016 RMK AO2 SLP214 T01220111 PNO $
KMGR
(33.7 nm SE from KABY)
210355Z AUTO 00000KT 7SM CLR 12/12 A3014 RMK AO2
TAF Summary (Translated TAF)
KABY
202219Z 2022/2118 05007KT P6SM SCT035 FM210400 06005KT P6SM FEW050 FM211500 05007KT P6SM SKC
  Airport Weather Conditions for KABY

 Current Weather at ABY
54° F
Fair
North winds at 0.0 mph
ABY NOAA Radar

Pressure: 30.16 in
Humidity: 93%
Wind: Calm
Dew Point: 52.0°F
Visibility: 8.00 mi


Airport Weather Forecast for KABY

Translated METAR and TAF for KABY
Translated METAR for KABY (0432 UTC 21 April 2014)
found at http://aviationweather.gov/adds/metars/
 
METAR text: KABY 210353Z 00000KT 8SM CLR 12/11 A3016 RMK AO2 SLP214 T01220111 PNO $
Conditions at: KABY (ALBANY , GA, US) observed 0353 UTC 21 April 2014
Temperature: 12.2°C (54°F)
Dewpoint: 11.1°C (52°F) [RH = 93%]
Pressure (altimeter): 30.16 inches Hg (1021.4 mb)
[Sea-level pressure: 1021.4 mb]
Winds: calm
Visibility: 8 miles (13 km)
Ceiling: at least 12,000 feet AGL
Clouds: sky clear below 12,000 feet AGL
Weather:
SOME DATA ABOVE MAY BE INACCURATE!!!
"$" is an indication the sensor requires maintenance
Translated TAF for KABY
Forecast for: KABY (ALBANY , GA, US)
TAF Text: KABY 202334Z 2100/2124 02005KT P6SM SKC
Forecast period: 0000 to 1400 UTC 21 April 2014
Forecast type: FROM: standard forecast or significant change
Winds: from the NNE (20 degrees) at 6 MPH (5 knots; 2.6 m/s)
Visibility: 6 or more miles (10+ km)
Clouds: clear skies
Weather: no significant weather forecast for this period
TAF Text: FM211400 05005KT P6SM SKC
Forecast period: 1400 UTC 21 April 2014 to 0000 UTC 22 April 2014
Forecast type: FROM: standard forecast or significant change
Winds: from the NE (50 degrees) at 6 MPH (5 knots; 2.6 m/s)
Visibility: 6 or more miles (10+ km)
Clouds: clear skies
Weather: no significant weather forecast for this period

Find All Airport Services Find A Hotel Find A Rental Car Find A Golf Course Find A Restaurant $100 Hamburger



FBO's on the Field
FBO Company Facility Photos Services Transportation Aviation Fuel Prices: Prices include tax
Catering Weather Repair Courtesy Rental Type 100LL JetA JetA+ MOGAS 8087
 
Eagles of America, Inc. - ABY

This FBO has not yet been rated
FS:AirBP
Last Updated: Apr-02
Login to update fuel prices
SS:
Contact Eagles of America, Inc. - ABYMore FBO Information
 
Add another FBO Facility Photos Catering Weather Repair Courtesy Rental Type 100LL JetA JetA+ MOGAS 8087
Services Transportation Aviation Fuel Prices: Prices include tax


GlobalAir.com Airport Resource Center model-print
model-print
model-print
model-print